Terminal Aerodrome Forecast
Issued by NWS Cleveland, OH

Home | Current Version | Previous Version | Text Only | Print | Product List | Glossary Off
Versions: 1 2 3 4 5 6 7 8 9 10 11 12 13 14 15 16 17 18 19 20 21 22 23 24 25

000
FTUS41 KCLE 252200 CCA
TAFMFD
TAF COR
KMFD 252202Z 2522/2618 02011KT 1 1/2SM -SN BR OVC008
      TEMPO 2522/2602 3/4SM -SN BR OVC012
     FM260200 05010KT 1SM -SN BR OVC006
     FM260600 03012KT 1 1/2SM -SN BR OVC006
     FM261700 34009KT 2SM BR OVC003=

USA.gov is the U.S. government's official web portal to all federal, state and local government web resources and services.